sensor_id;sensor_type;location;lat;lon;timestamp;pressure;altitude;pressure_sealevel;temperature;humidity
56456;BME280;42354;53.218;6.564;2023-05-03T00:00:52;46940.09;;;-142.92;77.95
56456;BME280;42354;53.218;6.564;2023-05-03T00:03:17;46931.88;;;-142.92;77.80
56456;BME280;42354;53.218;6.564;2023-05-03T00:05:47;46950.34;;;-142.92;78.25
56456;BME280;42354;53.218;6.564;2023-05-03T00:08:12;46952.41;;;-142.92;78.34
56456;BME280;42354;53.218;6.564;2023-05-03T00:10:38;46940.09;;;-142.92;78.53
56456;BME280;42354;53.218;6.564;2023-05-03T00:13:03;46954.44;;;-142.92;78.95
56456;BME280;42354;53.218;6.564;2023-05-03T00:15:29;46925.72;;;-142.92;79.22
56456;BME280;42354;53.218;6.564;2023-05-03T00:17:54;46948.28;;;-142.92;79.59
56456;BME280;42354;53.218;6.564;2023-05-03T00:20:19;46933.94;;;-142.92;79.65
56456;BME280;42354;53.218;6.564;2023-05-03T00:22:45;46954.44;;;-142.92;79.66
56456;BME280;42354;53.218;6.564;2023-05-03T00:25:11;46929.81;;;-142.92;79.87
56456;BME280;42354;53.218;6.564;2023-05-03T00:27:37;46966.75;;;-142.92;80.04
56456;BME280;42354;53.218;6.564;2023-05-03T00:30:03;46946.25;;;-142.92;80.26
56456;BME280;42354;53.218;6.564;2023-05-03T00:32:29;46946.25;;;-142.92;80.15
56456;BME280;42354;53.218;6.564;2023-05-03T00:34:55;46962.66;;;-142.92;80.19
56456;BME280;42354;53.218;6.564;2023-05-03T00:37:21;46962.66;;;-142.92;79.99
56456;BME280;42354;53.218;6.564;2023-05-03T00:39:49;46954.44;;;-142.92;79.80
56456;BME280;42354;53.218;6.564;2023-05-03T00:42:15;46942.13;;;-142.92;79.58
56456;BME280;42354;53.218;6.564;2023-05-03T00:44:41;46944.19;;;-142.92;79.19
56456;BME280;42354;53.218;6.564;2023-05-03T00:47:07;46966.75;;;-142.92;79.07
56456;BME280;42354;53.218;6.564;2023-05-03T00:49:33;46970.88;;;-142.92;78.72
56456;BME280;42354;53.218;6.564;2023-05-03T00:51:58;46960.59;;;-142.92;77.32
56456;BME280;42354;53.218;6.564;2023-05-03T00:54:28;46946.25;;;-142.92;76.09
56456;BME280;42354;53.218;6.564;2023-05-03T00:56:57;46962.66;;;-142.92;74.59
56456;BME280;42354;53.218;6.564;2023-05-03T00:59:22;46974.97;;;-142.92;73.05
56456;BME280;42354;53.218;6.564;2023-05-03T01:01:50;46966.75;;;-142.92;72.14
56456;BME280;42354;53.218;6.564;2023-05-03T01:04:16;46952.41;;;-142.92;71.49
56456;BME280;42354;53.218;6.564;2023-05-03T01:17:35;46935.97;;;-142.92;69.32
56456;BME280;42354;53.218;6.564;2023-05-03T01:20:07;46948.28;;;-142.92;69.29
56456;BME280;42354;53.218;6.564;2023-05-03T01:25:18;46968.81;;;-142.92;69.78
56456;BME280;42354;53.218;6.564;2023-05-03T01:27:44;46950.34;;;-142.92;70.10
56456;BME280;42354;53.218;6.564;2023-05-03T01:30:10;46977.03;;;-142.92;70.11
56456;BME280;42354;53.218;6.564;2023-05-03T01:32:59;46938.03;;;-142.92;70.05
56456;BME280;42354;53.218;6.564;2023-05-03T01:38:20;46964.72;;;-142.92;70.59
56456;BME280;42354;53.218;6.564;2023-05-03T01:40:52;46974.97;;;-142.92;70.49
56456;BME280;42354;53.218;6.564;2023-05-03T01:43:18;46956.50;;;-142.92;70.76
56456;BME280;42354;53.218;6.564;2023-05-03T01:45:44;46958.56;;;-142.92;70.49
56456;BME280;42354;53.218;6.564;2023-05-03T01:48:17;46960.59;;;-142.92;70.14
56456;BME280;42354;53.218;6.564;2023-05-03T01:50:43;46946.25;;;-142.92;70.53
56456;BME280;42354;53.218;6.564;2023-05-03T01:53:08;46968.81;;;-142.92;70.81
56456;BME280;42354;53.218;6.564;2023-05-03T01:55:34;46956.50;;;-142.92;70.87
56456;BME280;42354;53.218;6.564;2023-05-03T01:57:59;46964.72;;;-142.92;71.03
56456;BME280;42354;53.218;6.564;2023-05-03T02:00:25;46933.94;;;-142.92;71.29
56456;BME280;42354;53.218;6.564;2023-05-03T02:02:50;46962.66;;;-142.92;71.30
56456;BME280;42354;53.218;6.564;2023-05-03T02:05:16;46946.25;;;-142.92;71.54
56456;BME280;42354;53.218;6.564;2023-05-03T02:07:41;46966.75;;;-142.92;71.68
56456;BME280;42354;53.218;6.564;2023-05-03T02:10:07;46966.75;;;-142.92;71.64
56456;BME280;42354;53.218;6.564;2023-05-03T02:12:32;46960.59;;;-142.92;71.70
56456;BME280;42354;53.218;6.564;2023-05-03T02:14:58;46950.34;;;-142.92;71.42
56456;BME280;42354;53.218;6.564;2023-05-03T02:17:24;46962.66;;;-142.92;70.99
56456;BME280;42354;53.218;6.564;2023-05-03T02:19:52;46929.81;;;-142.92;69.98
56456;BME280;42354;53.218;6.564;2023-05-03T02:22:18;46960.59;;;-142.92;69.67
56456;BME280;42354;53.218;6.564;2023-05-03T02:24:44;46933.94;;;-142.92;69.82
56456;BME280;42354;53.218;6.564;2023-05-03T02:27:09;46929.81;;;-142.92;70.05
56456;BME280;42354;53.218;6.564;2023-05-03T02:29:35;46940.09;;;-142.92;69.96
56456;BME280;42354;53.218;6.564;2023-05-03T02:32:00;46962.66;;;-142.92;69.84
56456;BME280;42354;53.218;6.564;2023-05-03T02:34:29;46946.25;;;-142.92;69.94
56456;BME280;42354;53.218;6.564;2023-05-03T02:36:54;46964.72;;;-142.92;69.95
56456;BME280;42354;53.218;6.564;2023-05-03T02:39:21;46946.25;;;-142.92;70.04
56456;BME280;42354;53.218;6.564;2023-05-03T02:41:47;46964.72;;;-142.92;70.55
56456;BME280;42354;53.218;6.564;2023-05-03T02:44:12;46950.34;;;-142.92;70.09
56456;BME280;42354;53.218;6.564;2023-05-03T02:46:37;46960.59;;;-142.92;70.08
56456;BME280;42354;53.218;6.564;2023-05-03T02:49:04;46974.97;;;-142.92;70.00
56456;BME280;42354;53.218;6.564;2023-05-03T02:51:29;46950.34;;;-142.92;69.95
56456;BME280;42354;53.218;6.564;2023-05-03T02:53:55;46952.41;;;-142.92;69.69
56456;BME280;42354;53.218;6.564;2023-05-03T02:56:20;46956.50;;;-142.92;69.27
56456;BME280;42354;53.218;6.564;2023-05-03T02:58:46;46974.97;;;-142.92;69.02
56456;BME280;42354;53.218;6.564;2023-05-03T03:01:11;46962.66;;;-142.92;68.55
56456;BME280;42354;53.218;6.564;2023-05-03T03:03:36;46952.41;;;-142.92;68.21
56456;BME280;42354;53.218;6.564;2023-05-03T03:06:02;46974.97;;;-142.92;68.13
56456;BME280;42354;53.218;6.564;2023-05-03T03:08:27;46979.06;;;-142.92;67.55
56456;BME280;42354;53.218;6.564;2023-05-03T03:10:52;46950.34;;;-142.92;67.28
56456;BME280;42354;53.218;6.564;2023-05-03T03:13:18;46962.66;;;-142.92;66.80
56456;BME280;42354;53.218;6.564;2023-05-03T03:15:43;46968.81;;;-142.92;66.38
56456;BME280;42354;53.218;6.564;2023-05-03T03:18:09;46950.34;;;-142.92;65.91
56456;BME280;42354;53.218;6.564;2023-05-03T03:20:35;46948.28;;;-142.92;65.35
56456;BME280;42354;53.218;6.564;2023-05-03T03:23:00;46964.72;;;-142.92;65.33
56456;BME280;42354;53.218;6.564;2023-05-03T03:25:26;46989.34;;;-142.92;65.27
56456;BME280;42354;53.218;6.564;2023-05-03T03:27:51;46966.75;;;-142.92;65.50
56456;BME280;42354;53.218;6.564;2023-05-03T03:30:16;46958.56;;;-142.92;65.56
56456;BME280;42354;53.218;6.564;2023-05-03T03:32:42;46956.50;;;-142.92;65.79
56456;BME280;42354;53.218;6.564;2023-05-03T03:35:08;46964.72;;;-142.92;66.10
56456;BME280;42354;53.218;6.564;2023-05-03T03:37:36;46962.66;;;-142.92;66.39
56456;BME280;42354;53.218;6.564;2023-05-03T03:40:02;46954.44;;;-142.92;66.30
56456;BME280;42354;53.218;6.564;2023-05-03T03:42:28;46983.19;;;-142.92;66.07
56456;BME280;42354;53.218;6.564;2023-05-03T03:44:53;46964.72;;;-142.92;66.32
56456;BME280;42354;53.218;6.564;2023-05-03T03:47:19;46948.28;;;-142.92;66.35
56456;BME280;42354;53.218;6.564;2023-05-03T03:49:44;46954.44;;;-142.92;66.45
56456;BME280;42354;53.218;6.564;2023-05-03T03:52:09;46964.72;;;-142.92;66.43
56456;BME280;42354;53.218;6.564;2023-05-03T03:54:35;46968.81;;;-142.92;66.42
56456;BME280;42354;53.218;6.564;2023-05-03T03:57:00;46942.13;;;-142.92;66.44
56456;BME280;42354;53.218;6.564;2023-05-03T03:59:28;46966.75;;;-142.92;66.52
56456;BME280;42354;53.218;6.564;2023-05-03T04:01:53;46974.97;;;-142.92;66.45
56456;BME280;42354;53.218;6.564;2023-05-03T04:04:19;46962.66;;;-142.92;66.72
56456;BME280;42354;53.218;6.564;2023-05-03T04:06:44;46964.72;;;-142.92;66.82
56456;BME280;42354;53.218;6.564;2023-05-03T04:09:10;46954.44;;;-142.92;66.78
56456;BME280;42354;53.218;6.564;2023-05-03T04:11:36;46956.50;;;-142.92;67.13
56456;BME280;42354;53.218;6.564;2023-05-03T04:14:01;46962.66;;;-142.92;67.34
56456;BME280;42354;53.218;6.564;2023-05-03T04:16:28;46958.56;;;-142.92;67.37
56456;BME280;42354;53.218;6.564;2023-05-03T04:18:53;46952.41;;;-142.92;67.02
56456;BME280;42354;53.218;6.564;2023-05-03T04:21:19;46938.03;;;-142.92;66.75
56456;BME280;42354;53.218;6.564;2023-05-03T04:23:44;46970.88;;;-142.92;66.65
56456;BME280;42354;53.218;6.564;2023-05-03T04:26:12;46964.72;;;-142.92;66.46
56456;BME280;42354;53.218;6.564;2023-05-03T04:28:37;46960.59;;;-142.92;66.34
56456;BME280;42354;53.218;6.564;2023-05-03T04:31:04;46954.44;;;-142.92;66.19
56456;BME280;42354;53.218;6.564;2023-05-03T04:33:29;46954.44;;;-142.92;66.09
56456;BME280;42354;53.218;6.564;2023-05-03T04:35:55;46942.13;;;-142.92;65.97
56456;BME280;42354;53.218;6.564;2023-05-03T04:38:21;46958.56;;;-142.92;65.73
56456;BME280;42354;53.218;6.564;2023-05-03T04:40:47;46970.88;;;-142.92;65.40
56456;BME280;42354;53.218;6.564;2023-05-03T04:43:13;46954.44;;;-142.92;65.13
56456;BME280;42354;53.218;6.564;2023-05-03T04:45:39;46958.56;;;-142.92;64.85
56456;BME280;42354;53.218;6.564;2023-05-03T04:48:05;46958.56;;;-142.92;64.42
56456;BME280;42354;53.218;6.564;2023-05-03T04:50:31;46946.25;;;-142.92;64.35
56456;BME280;42354;53.218;6.564;2023-05-03T04:52:57;46981.13;;;-142.92;63.98
56456;BME280;42354;53.218;6.564;2023-05-03T04:55:23;46966.75;;;-142.92;63.83
56456;BME280;42354;53.218;6.564;2023-05-03T04:57:48;46966.75;;;-142.92;63.02
56456;BME280;42354;53.218;6.564;2023-05-03T05:00:14;46962.66;;;-142.92;62.78
56456;BME280;42354;53.218;6.564;2023-05-03T05:02:40;46958.56;;;-142.92;62.49
56456;BME280;42354;53.218;6.564;2023-05-03T05:05:06;46950.34;;;-142.92;62.19
56456;BME280;42354;53.218;6.564;2023-05-03T05:07:31;46948.28;;;-142.92;61.78
56456;BME280;42354;53.218;6.564;2023-05-03T05:09:56;46962.66;;;-142.92;61.32
56456;BME280;42354;53.218;6.564;2023-05-03T05:12:22;46944.19;;;-142.92;61.03
56456;BME280;42354;53.218;6.564;2023-05-03T05:14:48;46954.44;;;-142.92;60.75
56456;BME280;42354;53.218;6.564;2023-05-03T05:17:13;46968.81;;;-142.92;60.37
56456;BME280;42354;53.218;6.564;2023-05-03T05:19:39;46964.72;;;-142.92;60.10
56456;BME280;42354;53.218;6.564;2023-05-03T05:22:04;46968.81;;;-142.92;60.06
56456;BME280;42354;53.218;6.564;2023-05-03T05:24:29;46977.03;;;-142.92;59.36
56456;BME280;42354;53.218;6.564;2023-05-03T05:26:55;46966.75;;;-142.92;58.79
56456;BME280;42354;53.218;6.564;2023-05-03T05:29:20;46985.22;;;-142.92;58.09
56456;BME280;42354;53.218;6.564;2023-05-03T05:31:45;46960.59;;;-142.92;57.36
56456;BME280;42354;53.218;6.564;2023-05-03T05:34:11;46962.66;;;-142.92;56.66
56456;BME280;42354;53.218;6.564;2023-05-03T05:36:36;46958.56;;;-142.92;56.29
56456;BME280;42354;53.218;6.564;2023-05-03T05:39:02;46952.41;;;-142.92;55.48
56456;BME280;42354;53.218;6.564;2023-05-03T05:41:27;46972.91;;;-142.92;54.22
56456;BME280;42354;53.218;6.564;2023-05-03T05:43:53;46958.56;;;-142.92;53.70
56456;BME280;42354;53.218;6.564;2023-05-03T05:46:18;46946.25;;;-142.92;54.13
56456;BME280;42354;53.218;6.564;2023-05-03T05:48:45;46974.97;;;-142.92;53.68
56456;BME280;42354;53.218;6.564;2023-05-03T05:51:11;46989.34;;;-142.92;53.28
56456;BME280;42354;53.218;6.564;2023-05-03T05:53:36;46956.50;;;-142.92;52.55
56456;BME280;42354;53.218;6.564;2023-05-03T05:56:02;46950.34;;;-142.92;52.10
56456;BME280;42354;53.218;6.564;2023-05-03T05:58:27;46999.59;;;-142.92;51.79
56456;BME280;42354;53.218;6.564;2023-05-03T06:00:57;46954.44;;;-142.92;51.23
56456;BME280;42354;53.218;6.564;2023-05-03T06:03:22;46962.66;;;-142.92;50.85
56456;BME280;42354;53.218;6.564;2023-05-03T06:05:47;46987.28;;;-142.92;50.67
56456;BME280;42354;53.218;6.564;2023-05-03T06:08:14;46964.72;;;-142.92;50.59
56456;BME280;42354;53.218;6.564;2023-05-03T06:10:40;46989.34;;;-142.92;50.50
56456;BME280;42354;53.218;6.564;2023-05-03T06:13:05;46958.56;;;-142.92;50.29
56456;BME280;42354;53.218;6.564;2023-05-03T06:15:31;46960.59;;;-142.92;49.67
56456;BME280;42354;53.218;6.564;2023-05-03T06:17:57;46981.13;;;-142.92;49.10
56456;BME280;42354;53.218;6.564;2023-05-03T06:20:24;46970.88;;;-142.92;48.52
56456;BME280;42354;53.218;6.564;2023-05-03T06:22:50;46962.66;;;-142.92;47.99
56456;BME280;42354;53.218;6.564;2023-05-03T06:25:15;46962.66;;;-142.92;47.70
56456;BME280;42354;53.218;6.564;2023-05-03T06:27:41;46970.88;;;-142.92;47.03
56456;BME280;42354;53.218;6.564;2023-05-03T06:30:07;46960.59;;;-142.92;46.86
56456;BME280;42354;53.218;6.564;2023-05-03T06:32:32;46979.06;;;-142.92;46.44
56456;BME280;42354;53.218;6.564;2023-05-03T06:34:58;46964.72;;;-142.92;46.44
56456;BME280;42354;53.218;6.564;2023-05-03T06:37:27;46981.13;;;-142.92;46.45
56456;BME280;42354;53.218;6.564;2023-05-03T06:39:53;46974.97;;;-142.92;46.41
56456;BME280;42354;53.218;6.564;2023-05-03T06:42:18;46981.13;;;-142.92;46.13
56456;BME280;42354;53.218;6.564;2023-05-03T06:44:43;46968.81;;;-142.92;45.81
56456;BME280;42354;53.218;6.564;2023-05-03T06:47:09;46960.59;;;-142.92;45.62
56456;BME280;42354;53.218;6.564;2023-05-03T06:49:34;46964.72;;;-142.92;45.36
56456;BME280;42354;53.218;6.564;2023-05-03T06:52:00;46966.75;;;-142.92;44.63
56456;BME280;42354;53.218;6.564;2023-05-03T06:54:25;46974.97;;;-142.92;44.46
56456;BME280;42354;53.218;6.564;2023-05-03T06:56:50;46972.91;;;-142.92;44.25
56456;BME280;42354;53.218;6.564;2023-05-03T06:59:16;46962.66;;;-142.92;44.12
56456;BME280;42354;53.218;6.564;2023-05-03T07:01:41;46983.19;;;-142.92;43.93
56456;BME280;42354;53.218;6.564;2023-05-03T07:04:07;46972.91;;;-142.92;43.83
56456;BME280;42354;53.218;6.564;2023-05-03T07:06:32;46954.44;;;-142.92;43.54
56456;BME280;42354;53.218;6.564;2023-05-03T07:08:58;46979.06;;;-142.92;43.20
56456;BME280;42354;53.218;6.564;2023-05-03T07:11:23;46966.75;;;-142.92;42.98
56456;BME280;42354;53.218;6.564;2023-05-03T07:13:53;46964.72;;;-142.92;42.72
56456;BME280;42354;53.218;6.564;2023-05-03T07:16:19;46968.81;;;-142.92;42.63
56456;BME280;42354;53.218;6.564;2023-05-03T07:18:45;46979.06;;;-142.92;42.31
56456;BME280;42354;53.218;6.564;2023-05-03T07:21:12;46956.50;;;-142.92;42.39
56456;BME280;42354;53.218;6.564;2023-05-03T07:23:38;46985.22;;;-142.92;41.95
56456;BME280;42354;53.218;6.564;2023-05-03T07:26:03;46970.88;;;-142.92;42.08
56456;BME280;42354;53.218;6.564;2023-05-03T07:28:29;46977.03;;;-142.92;41.91
56456;BME280;42354;53.218;6.564;2023-05-03T07:30:54;46977.03;;;-142.92;41.81
56456;BME280;42354;53.218;6.564;2023-05-03T07:33:19;46999.59;;;-142.92;41.83
56456;BME280;42354;53.218;6.564;2023-05-03T07:35:45;46985.22;;;-142.92;41.32
56456;BME280;42354;53.218;6.564;2023-05-03T07:38:11;46970.88;;;-142.92;41.86
56456;BME280;42354;53.218;6.564;2023-05-03T07:40:37;46979.06;;;-142.92;42.12
56456;BME280;42354;53.218;6.564;2023-05-03T07:43:02;46972.91;;;-142.92;42.05
56456;BME280;42354;53.218;6.564;2023-05-03T07:45:28;46970.88;;;-142.92;42.11
56456;BME280;42354;53.218;6.564;2023-05-03T07:47:54;46981.13;;;-142.92;41.83
56456;BME280;42354;53.218;6.564;2023-05-03T07:50:21;46954.44;;;-142.92;41.47
56456;BME280;42354;53.218;6.564;2023-05-03T07:52:47;46958.56;;;-142.92;41.57
56456;BME280;42354;53.218;6.564;2023-05-03T07:55:16;46958.56;;;-142.92;41.81
56456;BME280;42354;53.218;6.564;2023-05-03T07:57:42;46970.88;;;-142.92;41.87
56456;BME280;42354;53.218;6.564;2023-05-03T08:00:08;46974.97;;;-142.92;41.78
56456;BME280;42354;53.218;6.564;2023-05-03T08:02:35;46974.97;;;-142.92;41.43
56456;BME280;42354;53.218;6.564;2023-05-03T08:05:02;46974.97;;;-142.92;41.43
56456;BME280;42354;53.218;6.564;2023-05-03T08:07:29;46974.97;;;-142.92;41.31
56456;BME280;42354;53.218;6.564;2023-05-03T08:09:55;46981.13;;;-142.92;41.12
56456;BME280;42354;53.218;6.564;2023-05-03T08:12:24;46970.88;;;-142.92;40.93
56456;BME280;42354;53.218;6.564;2023-05-03T08:14:53;46970.88;;;-142.92;40.93
56456;BME280;42354;53.218;6.564;2023-05-03T08:17:19;46974.97;;;-142.92;40.66
56456;BME280;42354;53.218;6.564;2023-05-03T08:19:45;46974.97;;;-142.92;40.67
56456;BME280;42354;53.218;6.564;2023-05-03T08:22:11;46962.66;;;-142.92;41.04
56456;BME280;42354;53.218;6.564;2023-05-03T08:24:37;46972.91;;;-142.92;41.09
56456;BME280;42354;53.218;6.564;2023-05-03T08:27:04;46956.50;;;-142.92;41.06
56456;BME280;42354;53.218;6.564;2023-05-03T08:29:31;46979.06;;;-142.92;41.06
56456;BME280;42354;53.218;6.564;2023-05-03T08:31:57;46991.38;;;-142.92;41.00
56456;BME280;42354;53.218;6.564;2023-05-03T08:34:24;46970.88;;;-142.92;41.23
56456;BME280;42354;53.218;6.564;2023-05-03T08:36:50;46966.75;;;-142.92;41.80
56456;BME280;42354;53.218;6.564;2023-05-03T08:39:16;46972.91;;;-142.92;42.08
56456;BME280;42354;53.218;6.564;2023-05-03T08:41:41;46972.91;;;-142.92;42.00
56456;BME280;42354;53.218;6.564;2023-05-03T08:44:10;46956.50;;;-142.92;41.62
56456;BME280;42354;53.218;6.564;2023-05-03T08:46:36;46970.88;;;-142.92;41.43
56456;BME280;42354;53.218;6.564;2023-05-03T08:49:03;46960.59;;;-142.92;41.52
56456;BME280;42354;53.218;6.564;2023-05-03T08:51:28;46979.06;;;-142.92;41.55
56456;BME280;42354;53.218;6.564;2023-05-03T08:53:54;46952.41;;;-142.92;41.84
56456;BME280;42354;53.218;6.564;2023-05-03T08:56:28;46972.91;;;-142.92;41.81
56456;BME280;42354;53.218;6.564;2023-05-03T08:58:54;46968.81;;;-142.92;42.10
56456;BME280;42354;53.218;6.564;2023-05-03T09:01:20;46983.19;;;-142.92;41.95
56456;BME280;42354;53.218;6.564;2023-05-03T09:03:50;46962.66;;;-142.92;41.80
56456;BME280;42354;53.218;6.564;2023-05-03T09:06:24;46964.72;;;-142.92;41.49
56456;BME280;42354;53.218;6.564;2023-05-03T09:08:53;46979.06;;;-142.92;41.68
56456;BME280;42354;53.218;6.564;2023-05-03T09:11:28;46981.13;;;-142.92;41.47
56456;BME280;42354;53.218;6.564;2023-05-03T09:14:08;46962.66;;;-142.92;41.18
56456;BME280;42354;53.218;6.564;2023-05-03T09:16:34;46958.56;;;-142.92;41.36
56456;BME280;42354;53.218;6.564;2023-05-03T09:19:02;46977.03;;;-142.92;41.40
56456;BME280;42354;53.218;6.564;2023-05-03T09:21:29;46968.81;;;-142.92;41.28
56456;BME280;42354;53.218;6.564;2023-05-03T09:23:58;46983.19;;;-142.92;41.29
56456;BME280;42354;53.218;6.564;2023-05-03T09:26:34;46977.03;;;-142.92;41.10
56456;BME280;42354;53.218;6.564;2023-05-03T09:29:03;46970.88;;;-142.92;41.27
56456;BME280;42354;53.218;6.564;2023-05-03T09:31:31;46952.41;;;-142.92;41.16
56456;BME280;42354;53.218;6.564;2023-05-03T09:33:57;46958.56;;;-142.92;41.04
56456;BME280;42354;53.218;6.564;2023-05-03T09:36:23;46974.97;;;-142.92;41.08
56456;BME280;42354;53.218;6.564;2023-05-03T09:38:50;46974.97;;;-142.92;41.11
56456;BME280;42354;53.218;6.564;2023-05-03T09:41:30;46974.97;;;-142.92;40.88
56456;BME280;42354;53.218;6.564;2023-05-03T09:43:56;46966.75;;;-142.92;41.12
56456;BME280;42354;53.218;6.564;2023-05-03T09:46:27;46956.50;;;-142.92;40.87
56456;BME280;42354;53.218;6.564;2023-05-03T09:48:54;46964.72;;;-142.92;40.72
56456;BME280;42354;53.218;6.564;2023-05-03T09:51:22;46962.66;;;-142.92;40.70
56456;BME280;42354;53.218;6.564;2023-05-03T09:53:48;46981.13;;;-142.92;40.26
56456;BME280;42354;53.218;6.564;2023-05-03T09:56:14;46966.75;;;-142.92;40.26
56456;BME280;42354;53.218;6.564;2023-05-03T09:58:41;46966.75;;;-142.92;40.15
56456;BME280;42354;53.218;6.564;2023-05-03T10:01:08;46962.66;;;-142.92;40.25
56456;BME280;42354;53.218;6.564;2023-05-03T10:03:46;46979.06;;;-142.92;39.86
56456;BME280;42354;53.218;6.564;2023-05-03T10:06:30;46972.91;;;-142.92;39.85
56456;BME280;42354;53.218;6.564;2023-05-03T10:09:17;46958.56;;;-142.92;39.54
56456;BME280;42354;53.218;6.564;2023-05-03T10:11:53;46968.81;;;-142.92;39.91
56456;BME280;42354;53.218;6.564;2023-05-03T10:14:19;46968.81;;;-142.92;39.86
56456;BME280;42354;53.218;6.564;2023-05-03T10:16:48;46958.56;;;-142.92;39.88
56456;BME280;42354;53.218;6.564;2023-05-03T10:19:28;46972.91;;;-142.92;39.60
56456;BME280;42354;53.218;6.564;2023-05-03T10:22:04;46960.59;;;-142.92;39.35
56456;BME280;42354;53.218;6.564;2023-05-03T10:24:31;46974.97;;;-142.92;39.59
56456;BME280;42354;53.218;6.564;2023-05-03T10:26:57;46966.75;;;-142.92;39.14
56456;BME280;42354;53.218;6.564;2023-05-03T10:29:44;46954.44;;;-142.92;38.89
56456;BME280;42354;53.218;6.564;2023-05-03T10:32:32;46968.81;;;-142.92;38.73
56456;BME280;42354;53.218;6.564;2023-05-03T10:35:03;46974.97;;;-142.92;38.54
56456;BME280;42354;53.218;6.564;2023-05-03T10:37:31;46970.88;;;-142.92;38.35
56456;BME280;42354;53.218;6.564;2023-05-03T10:40:05;46960.59;;;-142.92;38.12
56456;BME280;42354;53.218;6.564;2023-05-03T10:42:30;46960.59;;;-142.92;38.03
56456;BME280;42354;53.218;6.564;2023-05-03T10:44:56;46989.34;;;-142.92;37.84
56456;BME280;42354;53.218;6.564;2023-05-03T10:47:23;46970.88;;;-142.92;37.63
56456;BME280;42354;53.218;6.564;2023-05-03T10:55:11;46962.66;;;-142.92;37.80
56456;BME280;42354;53.218;6.564;2023-05-03T10:57:42;46968.81;;;-142.92;38.01
56456;BME280;42354;53.218;6.564;2023-05-03T11:00:28;46983.19;;;-142.92;38.25
56456;BME280;42354;53.218;6.564;2023-05-03T11:05:38;46954.44;;;-142.92;38.82
56456;BME280;42354;53.218;6.564;2023-05-03T11:10:47;46958.56;;;-142.92;37.96
56456;BME280;42354;53.218;6.564;2023-05-03T11:13:13;46962.66;;;-142.92;37.48
56456;BME280;42354;53.218;6.564;2023-05-03T11:15:39;46968.81;;;-142.92;37.06
56456;BME280;42354;53.218;6.564;2023-05-03T11:18:09;46962.66;;;-142.92;37.03
56456;BME280;42354;53.218;6.564;2023-05-03T11:20:38;46968.81;;;-142.92;36.92
56456;BME280;42354;53.218;6.564;2023-05-03T11:23:04;46958.56;;;-142.92;36.38
56456;BME280;42354;53.218;6.564;2023-05-03T11:25:30;46968.81;;;-142.92;35.33
56456;BME280;42354;53.218;6.564;2023-05-03T11:27:58;46977.03;;;-142.92;34.52
56456;BME280;42354;53.218;6.564;2023-05-03T11:30:24;46981.13;;;-142.92;33.88
56456;BME280;42354;53.218;6.564;2023-05-03T11:32:50;46977.03;;;-142.92;33.03
56456;BME280;42354;53.218;6.564;2023-05-03T11:35:16;46970.88;;;-142.92;32.89
56456;BME280;42354;53.218;6.564;2023-05-03T11:37:42;46974.97;;;-142.92;32.76
56456;BME280;42354;53.218;6.564;2023-05-03T11:40:15;46981.13;;;-142.92;33.69
56456;BME280;42354;53.218;6.564;2023-05-03T11:45:21;46974.97;;;-142.92;35.92
56456;BME280;42354;53.218;6.564;2023-05-03T11:47:47;46958.56;;;-142.92;36.13
56456;BME280;42354;53.218;6.564;2023-05-03T11:50:13;46974.97;;;-142.92;36.46
56456;BME280;42354;53.218;6.564;2023-05-03T11:52:38;46962.66;;;-142.92;37.40
56456;BME280;42354;53.218;6.564;2023-05-03T11:55:06;46970.88;;;-142.92;37.56
56456;BME280;42354;53.218;6.564;2023-05-03T11:57:32;46979.06;;;-142.92;37.72
56456;BME280;42354;53.218;6.564;2023-05-03T12:00:11;46962.66;;;-142.92;38.18
56456;BME280;42354;53.218;6.564;2023-05-03T12:02:39;46966.75;;;-142.92;38.20
56456;BME280;42354;53.218;6.564;2023-05-03T12:05:07;46962.66;;;-142.92;38.25
56456;BME280;42354;53.218;6.564;2023-05-03T12:07:32;46954.44;;;-142.92;37.91
56456;BME280;42354;53.218;6.564;2023-05-03T12:09:58;46950.34;;;-142.92;37.66
56456;BME280;42354;53.218;6.564;2023-05-03T12:12:23;46970.88;;;-142.92;37.74
56456;BME280;42354;53.218;6.564;2023-05-03T12:14:56;46979.06;;;-142.92;37.73
56456;BME280;42354;53.218;6.564;2023-05-03T12:17:36;46970.88;;;-142.92;37.91
56456;BME280;42354;53.218;6.564;2023-05-03T12:20:21;46966.75;;;-142.92;38.20
56456;BME280;42354;53.218;6.564;2023-05-03T12:22:50;46962.66;;;-142.92;38.03
56456;BME280;42354;53.218;6.564;2023-05-03T12:25:15;46960.59;;;-142.92;37.85
56456;BME280;42354;53.218;6.564;2023-05-03T12:27:42;46972.91;;;-142.92;37.56
56456;BME280;42354;53.218;6.564;2023-05-03T12:30:07;46974.97;;;-142.92;37.62
56456;BME280;42354;53.218;6.564;2023-05-03T12:32:37;46962.66;;;-142.92;37.72
56456;BME280;42354;53.218;6.564;2023-05-03T12:35:08;46983.19;;;-142.92;37.39
56456;BME280;42354;53.218;6.564;2023-05-03T12:37:34;46966.75;;;-142.92;37.26
56456;BME280;42354;53.218;6.564;2023-05-03T12:40:00;46979.06;;;-142.92;37.56
56456;BME280;42354;53.218;6.564;2023-05-03T12:42:26;46950.34;;;-142.92;37.37
56456;BME280;42354;53.218;6.564;2023-05-03T12:44:55;46950.34;;;-142.92;37.05
56456;BME280;42354;53.218;6.564;2023-05-03T12:47:21;46966.75;;;-142.92;36.84
56456;BME280;42354;53.218;6.564;2023-05-03T12:49:47;46970.88;;;-142.92;36.42
56456;BME280;42354;53.218;6.564;2023-05-03T12:52:12;46954.44;;;-142.92;36.22
56456;BME280;42354;53.218;6.564;2023-05-03T12:54:38;46954.44;;;-142.92;36.32
56456;BME280;42354;53.218;6.564;2023-05-03T12:57:03;46966.75;;;-142.92;36.11
56456;BME280;42354;53.218;6.564;2023-05-03T12:59:29;46954.44;;;-142.92;36.18
56456;BME280;42354;53.218;6.564;2023-05-03T13:01:55;46968.81;;;-142.92;36.18
56456;BME280;42354;53.218;6.564;2023-05-03T13:04:21;46962.66;;;-142.92;35.96
56456;BME280;42354;53.218;6.564;2023-05-03T13:06:47;46950.34;;;-142.92;36.43
56456;BME280;42354;53.218;6.564;2023-05-03T13:09:14;46954.44;;;-142.92;36.53